Time;durP1;ratioP1;P1;durP2;ratioP2;P2;SDS_P1;SDS_P2;PMS_P1;PMS_P2;Temp;Humidity;BMP_temperature;BMP_pressure;BME280_temperature;BME280_humidity;BME280_pressure;Samples;Min_cycle;Max_cycle;Signal;HPM_P1;HPM_P2
2021/03/07 00:02:23;;;;;;;10.18;6.70;;;-2.10;90.30;;;;;;5088222;28;20726;-68
2021/03/07 00:04:49;;;;;;;8.57;5.70;;;-2.20;90.80;;;;;;5088430;28;20204;-68
2021/03/07 00:07:16;;;;;;;8.05;5.25;;;-2.20;90.80;;;;;;5088404;28;20211;-69
2021/03/07 00:09:42;;;;;;;10.25;6.10;;;-2.20;91.20;;;;;;5087230;28;20204;-69
2021/03/07 00:12:09;;;;;;;6.43;5.25;;;-2.20;90.70;;;;;;5088157;28;20567;-68
2021/03/07 00:14:35;;;;;;;9.80;6.05;;;-2.20;90.90;;;;;;5090852;28;20208;-70
2021/03/07 00:17:02;;;;;;;11.65;6.00;;;-2.30;91.00;;;;;;5108035;28;20217;-70
2021/03/07 00:19:28;;;;;;;7.38;5.30;;;-2.30;91.10;;;;;;5107997;28;20198;-69
2021/03/07 00:21:54;;;;;;;6.93;5.25;;;-2.40;91.20;;;;;;5108006;28;20268;-69
2021/03/07 00:24:21;;;;;;;9.13;5.65;;;-2.40;91.30;;;;;;5108752;28;20566;-70
2021/03/07 00:26:48;;;;;;;11.30;6.00;;;-2.40;91.30;;;;;;5108501;28;20203;-68
2021/03/07 00:29:14;;;;;;;11.20;7.20;;;-2.40;91.70;;;;;;5107342;28;20203;-68
2021/03/07 00:31:40;;;;;;;11.32;6.30;;;-2.40;91.90;;;;;;5107958;28;20223;-68
2021/03/07 00:34:06;;;;;;;9.50;6.75;;;-2.40;92.00;;;;;;5108040;28;20585;-69
2021/03/07 00:36:32;;;;;;;9.23;5.88;;;-2.40;92.10;;;;;;5108461;28;20199;-69
2021/03/07 00:38:59;;;;;;;7.45;5.93;;;-2.40;92.10;;;;;;5107387;28;20314;-70
2021/03/07 00:41:26;;;;;;;6.10;5.50;;;-2.40;92.40;;;;;;5107648;28;20231;-69
2021/03/07 00:43:52;;;;;;;8.13;5.60;;;-2.40;92.50;;;;;;5107876;28;20211;-69
2021/03/07 00:46:18;;;;;;;9.40;6.10;;;-2.50;92.40;;;;;;5108208;28;20573;-70
2021/03/07 00:48:44;;;;;;;7.28;6.03;;;-2.50;92.30;;;;;;5106815;28;20244;-69
2021/03/07 00:51:11;;;;;;;7.38;6.00;;;-2.50;92.10;;;;;;5107783;28;21139;-70
2021/03/07 00:53:37;;;;;;;8.20;6.00;;;-2.50;92.20;;;;;;5107667;28;20786;-70
2021/03/07 00:56:04;;;;;;;7.38;5.65;;;-2.50;92.20;;;;;;5107402;28;20696;-69
2021/03/07 00:58:31;;;;;;;8.85;5.55;;;-2.50;92.70;;;;;;5237367;22;20239;-72
2021/03/07 01:00:57;;;;;;;7.70;6.38;;;-2.50;92.10;;;;;;5089325;28;20215;-68
2021/03/07 01:03:23;;;;;;;9.30;5.88;;;-2.50;92.30;;;;;;5091189;28;20578;-72
2021/03/07 01:05:50;;;;;;;11.40;6.32;;;-2.50;91.80;;;;;;5091114;28;20207;-69
2021/03/07 01:08:16;;;;;;;8.20;5.75;;;-2.50;91.80;;;;;;5090168;28;20207;-70
2021/03/07 01:10:44;;;;;;;8.85;5.75;;;-2.60;92.20;;;;;;5090358;28;20709;-72
2021/03/07 01:13:12;;;;;;;6.15;5.18;;;-2.60;92.40;;;;;;5090916;28;20199;-71
2021/03/07 01:15:41;;;;;;;7.95;5.68;;;-2.60;92.50;;;;;;5090901;28;20634;-72
2021/03/07 01:18:07;;;;;;;7.85;5.82;;;-2.60;92.40;;;;;;5090886;28;20269;-72
2021/03/07 01:20:35;;;;;;;7.55;6.15;;;-2.60;92.40;;;;;;5089847;28;20224;-72
2021/03/07 01:23:01;;;;;;;5.80;5.07;;;-2.70;92.50;;;;;;5090907;28;20581;-72
2021/03/07 01:25:31;;;;;;;7.55;5.65;;;-2.70;92.30;;;;;;5090498;28;20612;-71
2021/03/07 01:27:57;;;;;;;5.13;4.55;;;-2.70;92.60;;;;;;5090868;28;20196;-71
2021/03/07 01:30:24;;;;;;;10.30;5.88;;;-2.80;92.80;;;;;;5070185;28;20216;-71
2021/03/07 01:32:52;;;;;;;6.40;5.13;;;-2.80;92.80;;;;;;5066997;28;20507;-72
2021/03/07 01:35:19;;;;;;;6.93;5.25;;;-2.80;93.00;;;;;;5069130;28;20254;-72
2021/03/07 01:37:45;;;;;;;7.55;5.22;;;-2.70;93.20;;;;;;5066777;28;20753;-69
2021/03/07 01:40:14;;;;;;;9.13;5.18;;;-2.80;93.00;;;;;;5069162;28;20255;-70
2021/03/07 01:42:43;;;;;;;6.60;5.15;;;-2.80;92.70;;;;;;5070065;28;20200;-72
2021/03/07 01:45:10;;;;;;;8.25;5.60;;;-2.80;92.70;;;;;;5069949;28;20288;-71
2021/03/07 01:47:42;;;;;;;7.15;5.63;;;-2.80;92.50;;;;;;5070132;28;20254;-72
2021/03/07 01:50:11;;;;;;;8.32;5.40;;;-2.70;92.50;;;;;;5068894;28;20245;-70
2021/03/07 01:52:37;;;;;;;5.80;5.05;;;-2.70;92.50;;;;;;5070024;28;20212;-71
2021/03/07 01:55:05;;;;;;;8.45;5.43;;;-2.70;92.50;;;;;;5069649;28;20572;-71
2021/03/07 01:57:33;;;;;;;9.13;5.25;;;-2.80;92.40;;;;;;5066601;28;20216;-71
2021/03/07 02:00:00;;;;;;;9.45;5.57;;;-2.80;92.40;;;;;;5067205;28;20200;-69
2021/03/07 02:02:27;;;;;;;8.88;5.18;;;-2.80;92.30;;;;;;5066421;28;20201;-71
2021/03/07 02:04:53;;;;;;;11.63;6.43;;;-2.90;92.30;;;;;;5069457;28;20246;-72
2021/03/07 02:07:20;;;;;;;6.90;5.60;;;-2.90;92.40;;;;;;5069727;28;20207;-70
2021/03/07 02:09:50;;;;;;;7.80;5.72;;;-2.90;92.40;;;;;;5068882;28;20204;-70
2021/03/07 02:12:17;;;;;;;6.40;5.72;;;-2.90;92.70;;;;;;5070015;28;20321;-70
2021/03/07 02:14:44;;;;;;;7.05;5.43;;;-2.90;92.60;;;;;;5069401;28;20200;-71
2021/03/07 02:17:12;;;;;;;8.18;5.78;;;-3.00;92.60;;;;;;5069546;28;20211;-70
2021/03/07 02:19:40;;;;;;;7.53;5.57;;;-3.00;92.70;;;;;;5068990;28;20200;-72
2021/03/07 02:22:12;;;;;;;7.30;6.40;;;-3.00;92.80;;;;;;5069228;28;20207;-71
2021/03/07 02:24:39;;;;;;;6.82;5.38;;;-3.10;92.70;;;;;;5069617;28;20228;-71
2021/03/07 02:27:06;;;;;;;9.15;6.40;;;-3.10;92.80;;;;;;5069273;28;20212;-70
2021/03/07 02:29:32;;;;;;;7.05;5.78;;;-3.00;93.00;;;;;;5068982;28;20208;-71
2021/03/07 02:32:03;;;;;;;7.45;6.20;;;-3.10;93.00;;;;;;5069193;28;20224;-70
2021/03/07 02:34:32;;;;;;;5.72;4.90;;;-3.10;93.00;;;;;;5069847;28;20637;-70
2021/03/07 02:37:01;;;;;;;7.20;6.40;;;-3.10;92.90;;;;;;5069083;28;20238;-72
2021/03/07 02:39:31;;;;;;;8.02;5.70;;;-3.00;92.90;;;;;;5068646;28;20216;-71
2021/03/07 02:42:02;;;;;;;8.40;5.90;;;-3.10;92.90;;;;;;5068988;28;20225;-71
2021/03/07 02:44:32;;;;;;;7.88;6.07;;;-3.10;93.30;;;;;;5069071;28;20200;-71
2021/03/07 02:47:00;;;;;;;5.85;4.88;;;-3.20;93.40;;;;;;5069171;28;20204;-72
2021/03/07 02:49:27;;;;;;;10.02;5.60;;;-3.20;93.40;;;;;;5068712;28;20886;-72
2021/03/07 02:51:55;;;;;;;8.43;5.78;;;-3.20;93.40;;;;;;5068583;28;20232;-71
2021/03/07 02:54:23;;;;;;;9.02;6.05;;;-3.20;93.40;;;;;;5069325;28;20270;-71
2021/03/07 02:56:53;;;;;;;10.98;6.28;;;-3.30;93.50;;;;;;5068645;28;20200;-71
2021/03/07 02:59:23;;;;;;;7.55;6.00;;;-3.30;93.70;;;;;;5068520;28;20229;-72
2021/03/07 03:01:55;;;;;;;6.68;5.97;;;-3.30;94.30;;;;;;5068914;28;20228;-72
2021/03/07 03:04:22;;;;;;;6.78;6.07;;;-3.30;94.50;;;;;;5068991;28;20196;-71
2021/03/07 03:06:49;;;;;;;8.75;5.88;;;-3.40;94.50;;;;;;5068939;28;20204;-71
2021/03/07 03:09:16;;;;;;;8.18;5.40;;;-3.40;94.60;;;;;;5068143;28;20686;-71
2021/03/07 03:11:43;;;;;;;7.57;6.15;;;-3.40;94.70;;;;;;5068799;28;20232;-71
2021/03/07 03:14:13;;;;;;;8.18;6.22;;;-3.40;94.60;;;;;;5069126;28;20208;-71
2021/03/07 03:16:45;;;;;;;7.15;5.35;;;-3.40;94.90;;;;;;5068842;28;20207;-71
2021/03/07 03:19:12;;;;;;;14.35;6.22;;;-3.50;95.00;;;;;;5068560;28;20224;-70
2021/03/07 03:21:39;;;;;;;9.02;5.53;;;-3.50;95.20;;;;;;5068692;28;20243;-71
2021/03/07 03:24:08;;;;;;;9.32;6.32;;;-3.50;95.30;;;;;;5069009;28;20561;-71
2021/03/07 03:26:34;;;;;;;6.13;4.97;;;-3.50;95.20;;;;;;5068934;28;20207;-70
2021/03/07 03:29:04;;;;;;;6.97;5.20;;;-3.50;95.10;;;;;;5067987;28;20205;-70
2021/03/07 03:31:30;;;;;;;7.93;5.93;;;-3.50;95.10;;;;;;5069549;28;20224;-69
2021/03/07 03:33:58;;;;;;;6.95;5.50;;;-3.50;95.00;;;;;;5072331;28;20574;-71
2021/03/07 03:36:24;;;;;;;13.25;5.40;;;-3.50;95.10;;;;;;5072985;28;20609;-70
2021/03/07 03:38:52;;;;;;;6.50;5.90;;;-3.60;95.00;;;;;;5072162;28;20666;-69
2021/03/07 03:41:20;;;;;;;5.82;5.32;;;-3.50;94.90;;;;;;5072529;28;20224;-70
2021/03/07 03:43:48;;;;;;;7.28;5.65;;;-3.50;95.10;;;;;;5072513;28;20264;-70
2021/03/07 03:46:14;;;;;;;8.75;5.30;;;-3.60;95.30;;;;;;5072416;28;20573;-70
2021/03/07 03:48:43;;;;;;;6.07;4.97;;;-3.60;95.40;;;;;;5071915;28;20200;-70
2021/03/07 03:51:11;;;;;;;6.50;4.75;;;-3.60;95.40;;;;;;5072275;28;20228;-70
2021/03/07 03:53:40;;;;;;;5.22;4.72;;;-3.70;95.60;;;;;;5072216;28;20207;-71
2021/03/07 03:56:07;;;;;;;8.30;5.68;;;-3.70;95.50;;;;;;5072488;28;20200;-71
2021/03/07 03:58:39;;;;;;;7.82;5.65;;;-3.70;95.70;;;;;;5071668;28;20265;-69
2021/03/07 04:01:07;;;;;;;8.15;5.68;;;-3.70;95.70;;;;;;5072251;28;20220;-71
2021/03/07 04:03:35;;;;;;;6.78;5.53;;;-3.80;95.70;;;;;;5072038;28;20215;-71
2021/03/07 04:06:01;;;;;;;6.40;5.35;;;-3.80;95.90;;;;;;5072296;28;20219;-70
2021/03/07 04:08:29;;;;;;;8.15;5.40;;;-3.80;96.00;;;;;;5072341;28;20201;-71
2021/03/07 04:10:57;;;;;;;6.43;5.45;;;-3.80;95.90;;;;;;5071115;28;20220;-70
2021/03/07 04:13:26;;;;;;;6.97;4.65;;;-3.80;95.90;;;;;;5072296;28;20212;-70
2021/03/07 04:15:53;;;;;;;8.48;5.68;;;-3.80;95.90;;;;;;5071781;28;20196;-70
2021/03/07 04:18:23;;;;;;;6.70;5.15;;;-3.80;95.80;;;;;;5071897;28;20224;-71
2021/03/07 04:20:50;;;;;;;13.57;5.82;;;-3.70;96.10;;;;;;5071224;28;20231;-70
2021/03/07 04:23:17;;;;;;;5.80;5.20;;;-3.70;95.70;;;;;;5071730;28;20204;-71
2021/03/07 04:25:44;;;;;;;7.70;5.30;;;-3.80;96.10;;;;;;5071882;28;20205;-71
2021/03/07 04:28:11;;;;;;;9.13;5.60;;;-3.80;96.30;;;;;;5071535;28;20207;-69
2021/03/07 04:30:38;;;;;;;10.98;5.55;;;-3.80;96.30;;;;;;5071536;28;20795;-72
2021/03/07 04:33:05;;;;;;;8.10;5.65;;;-3.80;96.50;;;;;;5071574;28;20196;-71
2021/03/07 04:35:33;;;;;;;6.70;5.35;;;-3.80;96.40;;;;;;5072737;28;20249;-71
2021/03/07 04:38:00;;;;;;;5.85;5.13;;;-3.90;96.40;;;;;;5071455;28;20224;-72
2021/03/07 04:40:26;;;;;;;6.97;5.10;;;-3.90;96.60;;;;;;5070558;28;20228;-71
2021/03/07 04:42:53;;;;;;;6.53;5.10;;;-3.80;96.70;;;;;;5070411;28;20212;-72
2021/03/07 04:45:21;;;;;;;5.78;4.80;;;-3.80;96.60;;;;;;5071408;28;20209;-72
2021/03/07 04:47:47;;;;;;;9.00;6.68;;;-3.90;96.80;;;;;;5071087;28;20204;-70
2021/03/07 04:50:14;;;;;;;6.60;5.82;;;-3.90;96.80;;;;;;5070879;28;20217;-71
2021/03/07 04:52:40;;;;;;;7.45;4.97;;;-3.90;96.80;;;;;;5070898;28;20204;-71
2021/03/07 04:55:08;;;;;;;5.90;5.05;;;-3.90;97.20;;;;;;5071471;28;20265;-69
2021/03/07 04:57:35;;;;;;;7.32;5.28;;;-3.90;97.10;;;;;;5069829;28;20228;-70
2021/03/07 05:00:05;;;;;;;6.50;4.93;;;-3.90;97.30;;;;;;5068490;28;20782;-70
2021/03/07 05:02:31;;;;;;;5.50;4.97;;;-3.90;97.30;;;;;;5071116;28;20200;-71
2021/03/07 05:04:57;;;;;;;7.90;5.50;;;-3.90;97.60;;;;;;5070743;28;20219;-70
2021/03/07 05:07:23;;;;;;;7.45;5.03;;;-3.90;97.90;;;;;;5070989;28;20620;-71
2021/03/07 05:09:49;;;;;;;10.20;5.38;;;-3.90;97.80;;;;;;5070002;28;20204;-70
2021/03/07 05:12:16;;;;;;;6.82;5.47;;;-3.90;97.70;;;;;;5071180;28;20197;-71
2021/03/07 05:14:42;;;;;;;8.40;5.65;;;-3.90;97.70;;;;;;5071009;28;20219;-70
2021/03/07 05:17:09;;;;;;;6.63;5.05;;;-3.90;97.80;;;;;;5070417;28;20207;-71
2021/03/07 05:19:35;;;;;;;6.72;5.65;;;-3.80;97.70;;;;;;5071744;28;20216;-70
2021/03/07 05:22:01;;;;;;;9.63;5.45;;;-3.80;97.80;;;;;;5071829;28;20568;-71
2021/03/07 05:24:28;;;;;;;9.48;5.80;;;-3.90;97.90;;;;;;5071892;28;20227;-71
2021/03/07 05:26:54;;;;;;;7.20;4.72;;;-3.90;98.00;;;;;;5071733;28;20203;-69
2021/03/07 05:29:20;;;;;;;6.97;5.20;;;-3.90;98.10;;;;;;5070881;28;20207;-70
2021/03/07 05:31:46;;;;;;;7.38;5.75;;;-3.90;98.20;;;;;;5070222;28;20217;-70
2021/03/07 05:34:13;;;;;;;8.55;5.50;;;-3.90;98.10;;;;;;5070261;28;20698;-70
2021/03/07 05:36:40;;;;;;;7.35;5.03;;;-3.90;98.20;;;;;;5070477;28;20667;-71
2021/03/07 05:39:06;;;;;;;7.53;5.65;;;-3.90;98.40;;;;;;5069476;28;20224;-71
2021/03/07 05:41:32;;;;;;;7.55;4.93;;;-3.90;98.50;;;;;;5070086;28;20220;-69
2021/03/07 05:43:59;;;;;;;6.93;4.85;;;-3.90;98.50;;;;;;5070211;28;20208;-71
2021/03/07 05:46:25;;;;;;;8.02;6.38;;;-3.90;98.60;;;;;;5070031;28;20242;-71
2021/03/07 05:48:52;;;;;;;9.68;5.10;;;-4.00;98.70;;;;;;5069679;28;20577;-70
2021/03/07 05:51:19;;;;;;;5.90;5.13;;;-4.00;98.70;;;;;;5069843;28;20225;-70
2021/03/07 05:53:48;;;;;;;7.68;5.45;;;-3.90;98.80;;;;;;5069858;28;20205;-71
2021/03/07 05:56:15;;;;;;;8.82;5.32;;;-4.00;99.00;;;;;;5069895;28;20201;-71
2021/03/07 05:58:42;;;;;;;6.07;5.05;;;-4.00;99.20;;;;;;5069104;28;20706;-71
2021/03/07 06:01:08;;;;;;;6.28;5.15;;;-4.00;99.20;;;;;;5069637;28;20637;-70
2021/03/07 06:03:35;;;;;;;8.25;5.80;;;-4.00;99.30;;;;;;5069748;28;20208;-69
2021/03/07 06:06:01;;;;;;;7.75;5.20;;;-4.00;99.30;;;;;;5069737;28;20258;-69
2021/03/07 06:08:28;;;;;;;9.30;4.78;;;-3.90;99.30;;;;;;5069599;28;20203;-71
2021/03/07 06:10:54;;;;;;;8.68;5.55;;;-3.90;99.30;;;;;;5069263;28;20228;-71
2021/03/07 06:13:21;;;;;;;8.32;5.70;;;-3.80;99.20;;;;;;5069682;28;20200;-71
2021/03/07 06:15:48;;;;;;;8.48;5.85;;;-3.80;99.20;;;;;;5069251;28;20204;-71
2021/03/07 06:18:16;;;;;;;6.95;5.40;;;-3.80;99.20;;;;;;5069576;28;20227;-71
2021/03/07 06:20:44;;;;;;;6.55;5.05;;;-3.80;99.40;;;;;;5068693;28;20223;-71
2021/03/07 06:23:10;;;;;;;7.15;5.50;;;-3.80;99.40;;;;;;5069676;28;20227;-70
2021/03/07 06:25:49;;;;;;;9.65;5.72;;;-3.80;99.50;;;;;;5069607;28;20611;-70
2021/03/07 06:28:20;;;;;;;8.38;6.00;;;-3.70;99.40;;;;;;5069731;28;20203;-71
2021/03/07 06:30:47;;;;;;;7.25;5.80;;;-3.70;99.70;;;;;;5068931;28;20597;-69
2021/03/07 06:33:28;;;;;;;9.30;6.32;;;-3.60;99.60;;;;;;5069197;28;20671;-70
2021/03/07 06:36:15;;;;;;;7.00;6.07;;;-3.60;99.60;;;;;;5069344;28;20215;-71
2021/03/07 06:38:46;;;;;;;8.85;6.15;;;-3.50;99.60;;;;;;5068422;28;20231;-71
2021/03/07 06:41:18;;;;;;;8.15;6.45;;;-3.50;99.60;;;;;;5069319;28;20284;-71
2021/03/07 06:43:44;;;;;;;7.05;5.65;;;-3.40;99.80;;;;;;5069182;28;20609;-70
2021/03/07 06:46:26;;;;;;;8.88;6.68;;;-3.30;99.70;;;;;;5069394;28;20204;-70
2021/03/07 06:48:53;;;;;;;8.98;6.63;;;-3.20;99.60;;;;;;5068872;28;20222;-71
2021/03/07 06:51:26;;;;;;;7.45;6.45;;;-3.20;99.70;;;;;;5069046;28;20239;-70
2021/03/07 06:53:52;;;;;;;8.25;6.63;;;-3.10;99.60;;;;;;5069113;28;20208;-70
2021/03/07 06:56:41;;;;;;;6.90;5.38;;;-3.10;99.70;;;;;;5068940;28;20223;-69
2021/03/07 06:59:15;;;;;;;6.53;5.30;;;-2.90;99.60;;;;;;5068318;28;20772;-70
2021/03/07 07:01:43;;;;;;;7.07;5.63;;;-2.80;99.50;;;;;;5127393;22;20275;-69
2021/03/07 07:04:10;;;;;;;7.38;6.30;;;-2.70;99.40;;;;;;5049012;28;20229;-69
2021/03/07 07:06:38;;;;;;;7.95;6.32;;;-2.60;99.60;;;;;;5048030;28;20672;-70
2021/03/07 07:09:06;;;;;;;7.47;6.15;;;-2.50;99.60;;;;;;5048559;28;20205;-69
2021/03/07 07:11:43;;;;;;;6.00;5.00;;;-2.20;99.30;;;;;;5047996;28;20225;-70
2021/03/07 07:14:10;;;;;;;7.05;6.15;;;-1.80;98.90;;;;;;5040944;28;20939;-67
2021/03/07 07:16:36;;;;;;;8.40;7.50;;;-1.50;99.10;;;;;;5031806;28;20468;-68
2021/03/07 07:19:03;;;;;;;7.25;6.40;;;-1.40;99.00;;;;;;5042586;28;20251;-68
2021/03/07 07:21:30;;;;;;;7.60;5.88;;;-1.20;99.90;;;;;;5031948;28;20225;-68
2021/03/07 07:23:57;;;;;;;8.10;6.32;;;-0.70;99.90;;;;;;5048974;28;20201;-69
2021/03/07 07:26:23;;;;;;;8.27;6.47;;;0.00;99.90;;;;;;5048511;28;20197;-68
2021/03/07 07:28:50;;;;;;;8.20;6.10;;;1.00;97.80;;;;;;5048009;28;20200;-69
2021/03/07 07:31:21;;;;;;;7.10;6.40;;;2.00;95.30;;;;;;5048666;28;20252;-69
2021/03/07 07:33:51;;;;;;;9.35;7.35;;;3.00;93.80;;;;;;5048662;28;20231;-67
2021/03/07 07:36:25;;;;;;;8.15;6.70;;;4.00;91.80;;;;;;5048868;28;20197;-68
2021/03/07 07:38:55;;;;;;;8.32;6.22;;;4.90;90.40;;;;;;5047808;28;20260;-69
2021/03/07 07:41:29;;;;;;;8.68;6.18;;;5.70;88.70;;;;;;5048609;28;20221;-68
2021/03/07 07:43:56;;;;;;;7.35;6.55;;;6.50;87.50;;;;;;5048586;28;20208;-68
2021/03/07 07:46:23;;;;;;;8.57;6.88;;;6.70;86.90;;;;;;5049374;28;20570;-70
2021/03/07 07:48:49;;;;;;;8.48;7.25;;;7.00;86.60;;;;;;5048057;28;20671;-69
2021/03/07 07:51:33;;;;;;;11.30;8.05;;;7.20;84.50;;;;;;5048453;28;20229;-69
2021/03/07 07:54:00;;;;;;;9.77;7.22;;;7.70;84.00;;;;;;5048496;28;20671;-69
2021/03/07 07:56:41;;;;;;;12.00;8.20;;;8.20;83.00;;;;;;5046696;28;20304;-69
2021/03/07 07:59:09;;;;;;;9.05;7.53;;;8.60;80.00;;;;;;5047980;28;20623;-68
2021/03/07 08:01:54;;;;;;;9.15;7.57;;;8.90;78.60;;;;;;5048126;28;20581;-68
2021/03/07 08:04:39;;;;;;;8.95;8.05;;;9.10;78.50;;;;;;5047045;28;20227;-69
2021/03/07 08:07:10;;;;;;;10.98;7.55;;;9.30;78.00;;;;;;5048522;28;20201;-69
2021/03/07 08:09:45;;;;;;;8.27;7.10;;;9.60;77.80;;;;;;5046934;28;20201;-67
2021/03/07 08:12:49;;;;;;;8.52;6.68;;;10.00;74.40;;;;;;5028480;28;20224;-69
2021/03/07 08:15:45;;;;;;;6.78;6.13;;;10.40;73.70;;;;;;5028400;28;20201;-70
2021/03/07 08:18:13;;;;;;;7.95;7.15;;;10.60;72.80;;;;;;5030173;28;20221;-70
2021/03/07 08:20:59;;;;;;;7.32;6.63;;;10.90;71.40;;;;;;5031027;28;20226;-70
2021/03/07 08:23:25;;;;;;;6.90;6.30;;;11.00;69.20;;;;;;5031830;28;20209;-69
2021/03/07 08:26:02;;;;;;;8.00;6.80;;;10.80;68.50;;;;;;5031634;28;20686;-69
2021/03/07 08:28:42;;;;;;;8.38;7.10;;;10.50;69.30;;;;;;5030962;28;20341;-70
2021/03/07 08:31:30;;;;;;;8.40;7.10;;;10.00;70.40;;;;;;5031605;28;20637;-69
2021/03/07 08:34:24;;;;;;;7.20;6.45;;;8.80;72.60;;;;;;5031308;28;20206;-69
2021/03/07 08:36:55;;;;;;;7.07;6.15;;;7.90;74.20;;;;;;5031905;28;20213;-69
2021/03/07 08:39:22;;;;;;;8.95;7.13;;;7.40;75.50;;;;;;5030899;28;20226;-69
2021/03/07 08:42:02;;;;;;;8.25;6.65;;;7.30;76.70;;;;;;5031273;28;20234;-69
2021/03/07 08:44:29;;;;;;;8.25;7.45;;;7.80;76.60;;;;;;5031419;28;20251;-69
2021/03/07 08:46:57;;;;;;;10.40;7.63;;;8.50;75.70;;;;;;5031246;28;20542;-69
2021/03/07 08:49:25;;;;;;;8.95;6.53;;;8.70;74.10;;;;;;5031297;28;20201;-69
2021/03/07 08:52:01;;;;;;;7.35;6.63;;;9.40;73.60;;;;;;5030536;28;20221;-69
2021/03/07 08:54:30;;;;;;;7.30;6.43;;;10.80;71.90;;;;;;5031194;28;20209;-70
2021/03/07 08:56:57;;;;;;;7.72;6.93;;;12.50;66.80;;;;;;5031152;28;20205;-68
2021/03/07 08:59:29;;;;;;;8.13;7.38;;;13.70;65.90;;;;;;5030407;28;20229;-69
2021/03/07 09:01:56;;;;;;;8.70;7.78;;;15.10;64.00;;;;;;5030934;28;20236;-70
2021/03/07 09:04:23;;;;;;;7.68;6.97;;;16.10;60.90;;;;;;5030897;28;20591;-69
2021/03/07 09:06:49;;;;;;;9.47;8.17;;;16.70;59.50;;;;;;5030087;28;20618;-70
2021/03/07 09:09:17;;;;;;;8.30;7.50;;;16.60;58.90;;;;;;5029924;28;20460;-70
2021/03/07 09:11:50;;;;;;;8.90;8.00;;;16.90;58.10;;;;;;5029829;28;20480;-70
2021/03/07 09:14:17;;;;;;;9.07;7.40;;;17.40;58.70;;;;;;5029241;28;20979;-70
2021/03/07 09:16:46;;;;;;;8.90;7.93;;;17.00;59.90;;;;;;5048648;28;20463;-70
2021/03/07 09:19:35;;;;;;;8.70;7.80;;;16.50;59.80;;;;;;5049425;28;21104;-73
2021/03/07 09:22:23;;;;;;;8.43;7.63;;;17.30;58.80;;;;;;5046240;28;20879;-69
2021/03/07 09:24:59;;;;;;;10.20;7.63;;;18.30;58.20;;;;;;5045429;28;20516;-70
2021/03/07 09:27:27;;;;;;;9.30;8.50;;;19.20;55.40;;;;;;5050177;28;20498;-72
2021/03/07 09:30:00;;;;;;;11.33;7.60;;;19.40;54.80;;;;;;5048409;28;20470;-72
2021/03/07 09:32:29;;;;;;;8.87;8.07;;;19.50;55.60;;;;;;5050203;28;20470;-72
2021/03/07 09:34:58;;;;;;;8.87;8.03;;;19.10;55.20;;;;;;5050128;28;20488;-73
2021/03/07 09:37:26;;;;;;;9.13;8.33;;;19.10;55.00;;;;;;5049656;28;20459;-71
2021/03/07 09:39:54;;;;;;;8.40;7.60;;;18.60;56.80;;;;;;5048831;28;20862;-71
2021/03/07 09:42:21;;;;;;;8.50;7.60;;;18.70;56.50;;;;;;5049311;28;20474;-74
2021/03/07 09:44:49;;;;;;;9.60;8.70;;;20.10;55.90;;;;;;5049274;28;20467;-75
2021/03/07 09:47:18;;;;;;;7.63;6.93;;;21.20;53.40;;;;;;5051147;28;20550;-69
2021/03/07 09:49:46;;;;;;;8.90;8.00;;;21.30;51.90;;;;;;5049351;28;20517;-69
2021/03/07 09:52:15;;;;;;;10.03;8.40;;;20.00;53.60;;;;;;5051458;28;20467;-72
2021/03/07 09:54:57;;;;;;;9.17;8.27;;;18.80;54.20;;;;;;5050435;28;20470;-71
2021/03/07 09:57:24;;;;;;;9.67;8.73;;;18.00;57.10;;;;;;5047382;28;20463;-71
2021/03/07 09:59:52;;;;;;;9.17;8.30;;;18.60;56.50;;;;;;5048869;28;20483;-71
2021/03/07 10:02:18;;;;;;;8.43;7.67;;;18.90;55.00;;;;;;5048484;28;20476;-71
2021/03/07 10:04:46;;;;;;;8.80;8.00;;;19.80;55.40;;;;;;5048859;28;20455;-71
2021/03/07 10:07:25;;;;;;;9.03;8.23;;;20.30;55.40;;;;;;5049664;28;20475;-71
2021/03/07 10:10:03;;;;;;;9.77;8.87;;;19.90;54.00;;;;;;5048491;28;21081;-70
2021/03/07 10:12:40;;;;;;;8.73;7.93;;;19.40;54.80;;;;;;5049233;28;20578;-72
2021/03/07 10:15:08;;;;;;;9.23;8.33;;;19.70;54.00;;;;;;5049193;28;20838;-71
2021/03/07 10:17:39;;;;;;;9.43;8.53;;;19.00;54.60;;;;;;5049107;28;20490;-71
2021/03/07 10:20:12;;;;;;;9.33;8.50;;;19.30;54.80;;;;;;5048678;28;20518;-72
2021/03/07 10:22:41;;;;;;;9.70;8.83;;;20.30;52.70;;;;;;5048662;28;20455;-71
2021/03/07 10:25:20;;;;;;;9.83;8.83;;;20.80;53.10;;;;;;5049109;28;20479;-73
2021/03/07 10:27:53;;;;;;;10.03;9.07;;;20.90;53.20;;;;;;5048401;28;21061;-72
2021/03/07 10:30:31;;;;;;;10.03;9.03;;;21.10;52.40;;;;;;5048351;28;20486;-71
2021/03/07 10:33:16;;;;;;;9.47;8.57;;;21.50;52.00;;;;;;5048701;28;20455;-72
2021/03/07 10:36:09;;;;;;;9.93;8.93;;;21.50;52.00;;;;;;5045725;28;20468;-71
2021/03/07 10:38:39;;;;;;;9.30;8.40;;;21.60;52.40;;;;;;5047326;28;20507;-71
2021/03/07 10:41:20;;;;;;;9.50;8.57;;;22.40;51.80;;;;;;5047291;28;20850;-72
2021/03/07 10:43:48;;;;;;;9.77;8.73;;;22.10;52.80;;;;;;5047950;28;20609;-73
2021/03/07 10:46:25;;;;;;;9.87;8.97;;;23.00;51.20;;;;;;5047980;28;20512;-72
2021/03/07 10:48:53;;;;;;;9.80;8.80;;;22.70;50.50;;;;;;5045983;28;20490;-72
2021/03/07 10:51:23;;;;;;;9.83;8.90;;;22.50;51.70;;;;;;5048223;28;20541;-73
2021/03/07 10:53:51;;;;;;;9.90;9.00;;;22.30;51.10;;;;;;5047640;28;20474;-73
2021/03/07 10:56:19;;;;;;;9.93;9.10;;;22.50;50.30;;;;;;5035568;28;20963;-72
2021/03/07 10:58:45;;;;;;;10.20;9.30;;;22.40;51.60;;;;;;5027049;28;20457;-72
2021/03/07 11:01:14;;;;;;;8.90;8.07;;;21.90;52.20;;;;;;5028085;28;20841;-72
2021/03/07 11:03:41;;;;;;;9.70;8.80;;;21.50;52.30;;;;;;5027999;28;20467;-72
2021/03/07 11:06:09;;;;;;;8.97;8.17;;;22.20;51.50;;;;;;5027911;28;21005;-72
2021/03/07 11:08:37;;;;;;;9.37;8.47;;;22.30;51.20;;;;;;5028208;28;20887;-72
2021/03/07 11:11:07;;;;;;;9.73;8.83;;;21.90;52.40;;;;;;5027909;28;20484;-72
2021/03/07 11:13:34;;;;;;;9.70;8.73;;;22.00;51.30;;;;;;5028214;28;20993;-73
2021/03/07 11:16:01;;;;;;;10.17;9.27;;;22.50;51.60;;;;;;5028150;28;20831;-73
2021/03/07 11:18:28;;;;;;;10.43;9.43;;;22.60;51.30;;;;;;5027187;28;20527;-73
2021/03/07 11:21:03;;;;;;;10.13;9.23;;;22.60;51.10;;;;;;5027484;28;21169;-72
2021/03/07 11:23:30;;;;;;;9.80;8.90;;;22.30;50.90;;;;;;5027250;28;20463;-73
2021/03/07 11:25:56;;;;;;;10.37;9.43;;;22.20;51.30;;;;;;5048197;28;20467;-72
2021/03/07 11:28:24;;;;;;;9.30;8.40;;;22.80;50.60;;;;;;5035596;28;21015;-73
2021/03/07 11:30:50;;;;;;;9.53;8.63;;;22.50;50.00;;;;;;5027439;28;20486;-72
2021/03/07 11:33:18;;;;;;;9.50;8.60;;;23.10;49.70;;;;;;5028314;28;20515;-72
2021/03/07 11:35:44;;;;;;;11.13;9.70;;;23.40;50.00;;;;;;5027419;28;21034;-74
2021/03/07 11:38:10;;;;;;;8.73;7.83;;;23.50;49.30;;;;;;5027756;28;20461;-73
2021/03/07 11:40:38;;;;;;;10.27;9.27;;;23.10;51.20;;;;;;5027197;28;20485;-73
2021/03/07 11:43:05;;;;;;;9.30;8.40;;;23.10;50.20;;;;;;5027780;28;20486;-73
2021/03/07 11:45:32;;;;;;;9.47;8.57;;;23.20;49.20;;;;;;5027754;28;20514;-73
2021/03/07 11:47:58;;;;;;;9.97;9.07;;;23.00;50.50;;;;;;5028001;28;20475;-71
2021/03/07 11:50:25;;;;;;;10.47;9.47;;;23.30;48.50;;;;;;5027147;28;20535;-75
2021/03/07 11:52:51;;;;;;;9.27;8.47;;;22.70;48.90;;;;;;5029122;28;20533;-72
2021/03/07 11:55:18;;;;;;;9.30;8.40;;;22.40;49.40;;;;;;5031827;28;20506;-74
2021/03/07 11:57:44;;;;;;;9.47;8.57;;;23.00;48.90;;;;;;5031291;28;20460;-74
2021/03/07 12:00:11;;;;;;;9.57;8.37;;;22.60;49.00;;;;;;5031329;28;20476;-72
2021/03/07 12:02:38;;;;;;;9.00;8.13;;;22.60;49.60;;;;;;5031042;28;20464;-73
2021/03/07 12:05:10;;;;;;;10.30;9.30;;;22.70;49.20;;;;;;5038961;28;20954;-73
2021/03/07 12:07:40;;;;;;;10.07;9.20;;;22.40;50.70;;;;;;5050364;28;20520;-73
2021/03/07 12:10:11;;;;;;;9.37;8.57;;;22.60;49.00;;;;;;5050022;28;20541;-74
2021/03/07 12:12:38;;;;;;;10.70;8.67;;;22.80;48.90;;;;;;5050075;28;20467;-73
2021/03/07 12:15:05;;;;;;;9.13;8.37;;;22.80;48.50;;;;;;5051257;28;20467;-73
2021/03/07 12:17:34;;;;;;;9.83;8.93;;;22.50;48.90;;;;;;5050774;28;20463;-73
2021/03/07 12:20:01;;;;;;;9.60;8.60;;;22.60;48.80;;;;;;5049728;28;20455;-73
2021/03/07 12:22:28;;;;;;;9.43;8.63;;;22.90;49.30;;;;;;5050838;28;20990;-73
2021/03/07 12:24:55;;;;;;;10.33;9.23;;;22.90;48.60;;;;;;5050772;28;20489;-73
2021/03/07 12:27:22;;;;;;;10.30;9.40;;;23.20;49.40;;;;;;5051021;28;20505;-75
2021/03/07 12:29:48;;;;;;;10.10;9.17;;;23.30;49.10;;;;;;5049516;28;20690;-73
2021/03/07 12:32:15;;;;;;;8.70;8.00;;;23.40;48.00;;;;;;5049828;28;20466;-73
2021/03/07 12:34:44;;;;;;;9.00;8.20;;;23.00;48.40;;;;;;5050127;28;20514;-73
2021/03/07 12:37:14;;;;;;;10.13;9.20;;;22.50;49.00;;;;;;5050443;28;20543;-74
2021/03/07 12:39:40;;;;;;;9.13;7.90;;;22.70;48.10;;;;;;5049447;28;20460;-74
2021/03/07 12:42:07;;;;;;;11.10;8.50;;;22.50;48.90;;;;;;5050352;28;20483;-73
2021/03/07 12:44:33;;;;;;;9.13;8.33;;;22.50;48.20;;;;;;5049851;28;20464;-74
2021/03/07 12:47:00;;;;;;;9.60;8.70;;;22.70;48.00;;;;;;5050296;28;20467;-75
2021/03/07 12:49:27;;;;;;;9.33;8.43;;;22.40;48.30;;;;;;5049322;28;20483;-74
2021/03/07 12:51:53;;;;;;;9.73;8.90;;;22.10;48.80;;;;;;5049571;28;20532;-73
2021/03/07 12:54:21;;;;;;;9.10;8.30;;;22.00;48.90;;;;;;5050217;28;20462;-75
2021/03/07 12:56:47;;;;;;;8.50;7.70;;;22.30;49.10;;;;;;5049429;28;20205;-75